»·PEaware :: UAL1399 KPSC-KPDX

UAL1399 :: KPSC-KPDX

FLIGHT INFORMATION

Flight Status: Arrived
Operator:
United Airlines
More flights by this operator :: More flights under this callsign
Pilot: David C. (16084)
Aircraft: AIRBUS A320
(A320)
More flights by this aircraft type
Origin: KPSC Tri-Cities
United States
Destination: KPDX Portland Intl
United States
More flights between these airports :: More routes between these airports
Route: PSC V520 LTJ YENTL HHOOD4
File this flight plan on PilotEdge
Remarks:
Altitude:
(Current/Filed)
22,000ft
Speed:
(Current/Filed)
451kts
Departed: 28-Jul-18 04:22 PM
Arrived: 28-Jul-18 04:55 PM
Distance/Time
Traveled:
150nm/0:33
Distance/Time
To Go:
Arrived

Flight Plot

Page will automatically refresh every two minutes.

Flight plan parsing failed; only flown route is shown


Map Options




Map Legend


Flown Route
Filed Route
Departure Airport
Arrival Airport
Navaid (VOR, NDB)
Fix

Horizontal Profiles

Position Reports

Time Latitude Longitude Heading Altitude Ground
Speed
28-Jul-18 16:03 46.259571 -119.113698 10 419ft 0kts
28-Jul-18 16:04 46.259571 -119.113698 10 419ft 0kts
28-Jul-18 16:05 46.259571 -119.113698 10 419ft 0kts
28-Jul-18 16:06 46.259571 -119.113698 10 419ft 0kts
28-Jul-18 16:07 46.259571 -119.113698 10 419ft 0kts
28-Jul-18 16:08 46.259571 -119.113698 10 419ft 0kts
28-Jul-18 16:09 46.259571 -119.113698 10 419ft 0kts
28-Jul-18 16:10 46.259571 -119.113698 10 419ft 0kts
28-Jul-18 16:11 46.259571 -119.113698 10 419ft 0kts
28-Jul-18 16:12 46.259571 -119.113698 10 419ft 0kts
28-Jul-18 16:13 46.259571 -119.113698 10 419ft 0kts
28-Jul-18 16:14 46.259571 -119.113698 10 419ft 0kts
28-Jul-18 16:15 46.259572 -119.113698 10 419ft 0kts
28-Jul-18 16:16 46.259572 -119.113698 10 419ft 0kts
28-Jul-18 16:17 46.259572 -119.113698 10 419ft 0kts
28-Jul-18 16:18 46.259581 -119.113696 10 419ft 1kts
28-Jul-18 16:19 46.259148 -119.109963 134 419ft 18kts
28-Jul-18 16:20 46.257898 -119.107848 79 419ft 0kts
28-Jul-18 16:21 46.257898 -119.107848 79 419ft 0kts
28-Jul-18 16:22 46.258786 -119.107336 314 419ft 0kts
28-Jul-18 16:23 46.277695 -119.133979 317 949ft 186kts
28-Jul-18 16:24 46.319105 -119.190796 316 3507ft 220kts
28-Jul-18 16:25 46.341624 -119.266443 251 6302ft 232kts
28-Jul-18 16:26 46.297577 -119.349772 231 8105ft 294kts
28-Jul-18 16:27 46.244937 -119.442969 231 11053ft 306kts
28-Jul-18 16:28 46.191305 -119.538140 232 14211ft 307kts
28-Jul-18 16:29 46.136848 -119.634699 233 16877ft 317kts
28-Jul-18 16:30 46.098596 -119.746316 251 19365ft 319kts
28-Jul-18 16:31 46.065476 -119.865857 251 21697ft 325kts
28-Jul-18 16:32 46.029053 -119.997123 251 22005ft 385kts
28-Jul-18 16:33 45.986599 -120.148722 250 22025ft 434kts
28-Jul-18 16:34 45.939751 -120.314572 250 22041ft 456kts
28-Jul-18 16:35 45.892384 -120.481089 250 22032ft 455kts
28-Jul-18 16:36 45.844428 -120.648791 250 21835ft 454kts
28-Jul-18 16:37 45.797373 -120.812170 249 20443ft 443kts
28-Jul-18 16:38 45.751065 -120.971914 249 17887ft 429kts
28-Jul-18 16:39 45.705168 -121.127357 246 15323ft 423kts
28-Jul-18 16:40 45.658293 -121.275611 244 13717ft 388kts
28-Jul-18 16:41 45.616500 -121.406972 244 13033ft 339kts
28-Jul-18 16:42 45.581667 -121.529186 247 11405ft 332kts
28-Jul-18 16:43 45.547747 -121.650072 246 10047ft 316kts
28-Jul-18 16:44 45.531233 -121.766314 273 8817ft 301kts
28-Jul-18 16:45 45.535502 -121.882464 271 7534ft 290kts
28-Jul-18 16:46 45.539764 -121.990867 272 6892ft 258kts
28-Jul-18 16:47 45.524586 -122.077320 233 6610ft 241kts
28-Jul-18 16:48 45.488167 -122.149876 233 5909ft 210kts
28-Jul-18 16:49 45.476256 -122.225689 275 5304ft 197kts
28-Jul-18 16:50 45.482962 -122.299779 282 4126ft 186kts
28-Jul-18 16:51 45.504801 -122.364125 297 3235ft 177kts
28-Jul-18 16:52 45.528138 -122.424410 298 2302ft 167kts
28-Jul-18 16:53 45.550313 -122.481467 299 1418ft 164kts
28-Jul-18 16:54 45.571560 -122.536005 299 582ft 143kts
28-Jul-18 16:55 45.590171 -122.583759 300 38ft 95kts
28-Jul-18 16:56 45.592063 -122.591138 258 38ft 0kts
28-Jul-18 16:57 45.591914 -122.592163 226 38ft 11kts
28-Jul-18 16:58 45.590232 -122.591582 209 38ft 0kts

Navigation Log

Ident Type
Flight plan parsing failed, navigation log unavailable